sensor_id;sensor_type;location;lat;lon;timestamp;temperature;humidity
67163;DHT22;54092;53.088;8.850;2023-05-01T00:00:04;7.70;99.90
67163;DHT22;54092;53.088;8.850;2023-05-01T00:02:30;7.70;99.90
67163;DHT22;54092;53.088;8.850;2023-05-01T00:04:56;7.70;99.90
67163;DHT22;54092;53.088;8.850;2023-05-01T00:07:22;7.70;99.90
67163;DHT22;54092;53.088;8.850;2023-05-01T00:09:49;7.60;99.90
67163;DHT22;54092;53.088;8.850;2023-05-01T00:12:15;7.60;99.90
67163;DHT22;54092;53.088;8.850;2023-05-01T00:14:40;7.60;99.90
67163;DHT22;54092;53.088;8.850;2023-05-01T00:17:06;7.60;99.90
67163;DHT22;54092;53.088;8.850;2023-05-01T00:19:31;7.50;99.90
67163;DHT22;54092;53.088;8.850;2023-05-01T00:21:57;7.50;99.90
67163;DHT22;54092;53.088;8.850;2023-05-01T00:24:22;7.40;99.90
67163;DHT22;54092;53.088;8.850;2023-05-01T00:26:48;7.40;99.90
67163;DHT22;54092;53.088;8.850;2023-05-01T00:29:14;7.40;99.90
67163;DHT22;54092;53.088;8.850;2023-05-01T00:31:40;7.40;99.90
67163;DHT22;54092;53.088;8.850;2023-05-01T00:34:09;7.30;99.90
67163;DHT22;54092;53.088;8.850;2023-05-01T00:36:35;7.30;99.90
67163;DHT22;54092;53.088;8.850;2023-05-01T00:39:01;7.30;99.90
67163;DHT22;54092;53.088;8.850;2023-05-01T00:41:27;7.30;99.90
67163;DHT22;54092;53.088;8.850;2023-05-01T00:43:52;7.20;99.90
67163;DHT22;54092;53.088;8.850;2023-05-01T00:46:18;7.20;99.90
67163;DHT22;54092;53.088;8.850;2023-05-01T00:48:43;7.20;99.90
67163;DHT22;54092;53.088;8.850;2023-05-01T00:51:11;7.20;99.90
67163;DHT22;54092;53.088;8.850;2023-05-01T00:53:39;7.10;99.90
67163;DHT22;54092;53.088;8.850;2023-05-01T00:56:06;7.10;99.90
67163;DHT22;54092;53.088;8.850;2023-05-01T00:58:32;7.10;99.90
67163;DHT22;54092;53.088;8.850;2023-05-01T01:00:58;7.10;99.90
67163;DHT22;54092;53.088;8.850;2023-05-01T01:03:24;7.10;99.90
67163;DHT22;54092;53.088;8.850;2023-05-01T01:09:26;7.00;99.90
67163;DHT22;54092;53.088;8.850;2023-05-01T01:14:39;6.90;99.90
67163;DHT22;54092;53.088;8.850;2023-05-01T01:17:15;6.90;99.90
67163;DHT22;54092;53.088;8.850;2023-05-01T01:22:45;6.90;99.90
67163;DHT22;54092;53.088;8.850;2023-05-01T01:28:33;6.90;99.90
67163;DHT22;54092;53.088;8.850;2023-05-01T01:34:01;6.70;99.90
67163;DHT22;54092;53.088;8.850;2023-05-01T01:36:34;6.70;99.90
67163;DHT22;54092;53.088;8.850;2023-05-01T01:39:12;6.70;99.90
67163;DHT22;54092;53.088;8.850;2023-05-01T01:41:40;6.70;99.90
67163;DHT22;54092;53.088;8.850;2023-05-01T01:44:21;6.60;99.90
67163;DHT22;54092;53.088;8.850;2023-05-01T01:46:47;6.60;99.90
67163;DHT22;54092;53.088;8.850;2023-05-01T01:49:25;6.50;99.90
67163;DHT22;54092;53.088;8.850;2023-05-01T01:51:52;6.60;99.90
67163;DHT22;54092;53.088;8.850;2023-05-01T01:54:23;6.50;99.90
67163;DHT22;54092;53.088;8.850;2023-05-01T01:56:51;6.60;99.90
67163;DHT22;54092;53.088;8.850;2023-05-01T01:59:19;6.60;99.90
67163;DHT22;54092;53.088;8.850;2023-05-01T02:01:46;6.60;99.90
67163;DHT22;54092;53.088;8.850;2023-05-01T02:04:14;6.60;99.90
67163;DHT22;54092;53.088;8.850;2023-05-01T02:06:41;6.70;99.90
67163;DHT22;54092;53.088;8.850;2023-05-01T02:09:08;6.80;99.90
67163;DHT22;54092;53.088;8.850;2023-05-01T02:11:35;6.80;99.90
67163;DHT22;54092;53.088;8.850;2023-05-01T02:14:03;6.90;99.90
67163;DHT22;54092;53.088;8.850;2023-05-01T02:16:29;6.90;99.90
67163;DHT22;54092;53.088;8.850;2023-05-01T02:18:55;7.00;99.90
67163;DHT22;54092;53.088;8.850;2023-05-01T02:21:21;7.10;99.90
67163;DHT22;54092;53.088;8.850;2023-05-01T02:23:47;7.10;99.90
67163;DHT22;54092;53.088;8.850;2023-05-01T02:26:15;7.10;99.90
67163;DHT22;54092;53.088;8.850;2023-05-01T02:28:42;7.20;99.90
67163;DHT22;54092;53.088;8.850;2023-05-01T02:31:08;7.20;99.90
67163;DHT22;54092;53.088;8.850;2023-05-01T02:33:34;7.30;99.90
67163;DHT22;54092;53.088;8.850;2023-05-01T02:36:00;7.30;99.90
67163;DHT22;54092;53.088;8.850;2023-05-01T02:38:25;7.30;99.90
67163;DHT22;54092;53.088;8.850;2023-05-01T02:40:54;7.30;99.90
67163;DHT22;54092;53.088;8.850;2023-05-01T02:43:21;7.30;99.90
67163;DHT22;54092;53.088;8.850;2023-05-01T02:45:49;7.20;99.90
67163;DHT22;54092;53.088;8.850;2023-05-01T02:48:19;7.20;99.90
67163;DHT22;54092;53.088;8.850;2023-05-01T02:50:46;7.20;99.90
67163;DHT22;54092;53.088;8.850;2023-05-01T02:53:14;7.20;99.90
67163;DHT22;54092;53.088;8.850;2023-05-01T02:55:40;7.20;99.90
67163;DHT22;54092;53.088;8.850;2023-05-01T02:58:07;7.20;99.90
67163;DHT22;54092;53.088;8.850;2023-05-01T03:00:33;7.20;99.90
67163;DHT22;54092;53.088;8.850;2023-05-01T03:02:59;7.30;99.90
67163;DHT22;54092;53.088;8.850;2023-05-01T03:05:25;7.30;99.90
67163;DHT22;54092;53.088;8.850;2023-05-01T03:07:51;7.20;99.90
67163;DHT22;54092;53.088;8.850;2023-05-01T03:10:17;7.20;99.90
67163;DHT22;54092;53.088;8.850;2023-05-01T03:12:42;7.20;99.90
67163;DHT22;54092;53.088;8.850;2023-05-01T03:15:09;7.20;99.90
67163;DHT22;54092;53.088;8.850;2023-05-01T03:17:36;7.20;99.90
67163;DHT22;54092;53.088;8.850;2023-05-01T03:20:01;7.20;99.90
67163;DHT22;54092;53.088;8.850;2023-05-01T03:22:30;7.20;99.90
67163;DHT22;54092;53.088;8.850;2023-05-01T03:24:57;7.20;99.90
67163;DHT22;54092;53.088;8.850;2023-05-01T03:27:23;7.20;99.90
67163;DHT22;54092;53.088;8.850;2023-05-01T03:29:48;7.10;99.90
67163;DHT22;54092;53.088;8.850;2023-05-01T03:32:14;7.10;99.90
67163;DHT22;54092;53.088;8.850;2023-05-01T03:34:40;7.10;99.90
67163;DHT22;54092;53.088;8.850;2023-05-01T03:37:06;7.10;99.90
67163;DHT22;54092;53.088;8.850;2023-05-01T03:39:31;7.10;99.90
67163;DHT22;54092;53.088;8.850;2023-05-01T03:41:57;7.10;99.90
67163;DHT22;54092;53.088;8.850;2023-05-01T03:44:23;7.10;99.90
67163;DHT22;54092;53.088;8.850;2023-05-01T03:46:49;7.10;99.90
67163;DHT22;54092;53.088;8.850;2023-05-01T03:49:14;7.00;99.90
67163;DHT22;54092;53.088;8.850;2023-05-01T03:51:39;7.00;99.90
67163;DHT22;54092;53.088;8.850;2023-05-01T03:54:05;7.00;99.90
67163;DHT22;54092;53.088;8.850;2023-05-01T03:56:31;6.90;99.90
67163;DHT22;54092;53.088;8.850;2023-05-01T03:59:00;7.00;99.90
67163;DHT22;54092;53.088;8.850;2023-05-01T04:01:25;7.00;99.90
67163;DHT22;54092;53.088;8.850;2023-05-01T04:03:51;6.90;99.90
67163;DHT22;54092;53.088;8.850;2023-05-01T04:06:17;6.90;99.90
67163;DHT22;54092;53.088;8.850;2023-05-01T04:08:43;7.00;99.90
67163;DHT22;54092;53.088;8.850;2023-05-01T04:11:09;6.90;99.90
67163;DHT22;54092;53.088;8.850;2023-05-01T04:13:35;6.90;99.90
67163;DHT22;54092;53.088;8.850;2023-05-01T04:16:00;7.00;99.90
67163;DHT22;54092;53.088;8.850;2023-05-01T04:18:26;7.00;99.90
67163;DHT22;54092;53.088;8.850;2023-05-01T04:20:51;7.00;99.90
67163;DHT22;54092;53.088;8.850;2023-05-01T04:23:17;7.00;99.90
67163;DHT22;54092;53.088;8.850;2023-05-01T04:25:43;7.10;99.90
67163;DHT22;54092;53.088;8.850;2023-05-01T04:28:11;7.00;99.90
67163;DHT22;54092;53.088;8.850;2023-05-01T04:30:37;7.00;99.90
67163;DHT22;54092;53.088;8.850;2023-05-01T04:33:03;7.00;99.90
67163;DHT22;54092;53.088;8.850;2023-05-01T04:35:36;7.00;99.90
67163;DHT22;54092;53.088;8.850;2023-05-01T04:38:03;7.00;99.90
67163;DHT22;54092;53.088;8.850;2023-05-01T04:40:28;7.00;99.90
67163;DHT22;54092;53.088;8.850;2023-05-01T04:42:54;7.10;99.90
67163;DHT22;54092;53.088;8.850;2023-05-01T04:45:20;7.10;99.90
67163;DHT22;54092;53.088;8.850;2023-05-01T04:47:46;7.10;99.90
67163;DHT22;54092;53.088;8.850;2023-05-01T04:50:11;7.10;99.90
67163;DHT22;54092;53.088;8.850;2023-05-01T04:52:36;7.20;99.90
67163;DHT22;54092;53.088;8.850;2023-05-01T04:55:02;7.20;99.90
67163;DHT22;54092;53.088;8.850;2023-05-01T04:57:28;7.20;99.90
67163;DHT22;54092;53.088;8.850;2023-05-01T04:59:54;7.30;99.90
67163;DHT22;54092;53.088;8.850;2023-05-01T05:02:19;7.30;99.90
67163;DHT22;54092;53.088;8.850;2023-05-01T05:04:45;7.40;99.90
67163;DHT22;54092;53.088;8.850;2023-05-01T05:07:10;7.50;99.90
67163;DHT22;54092;53.088;8.850;2023-05-01T05:09:36;7.50;99.90
67163;DHT22;54092;53.088;8.850;2023-05-01T05:12:02;7.60;99.90
67163;DHT22;54092;53.088;8.850;2023-05-01T05:14:31;7.60;99.90
67163;DHT22;54092;53.088;8.850;2023-05-01T05:16:56;7.70;99.90
67163;DHT22;54092;53.088;8.850;2023-05-01T05:19:21;7.70;99.90
67163;DHT22;54092;53.088;8.850;2023-05-01T05:21:47;7.80;99.90
67163;DHT22;54092;53.088;8.850;2023-05-01T05:24:13;8.00;99.90
67163;DHT22;54092;53.088;8.850;2023-05-01T05:26:38;8.10;99.90
67163;DHT22;54092;53.088;8.850;2023-05-01T05:29:04;8.20;99.90
67163;DHT22;54092;53.088;8.850;2023-05-01T05:31:30;8.20;99.90
67163;DHT22;54092;53.088;8.850;2023-05-01T05:33:56;8.40;99.90
67163;DHT22;54092;53.088;8.850;2023-05-01T05:36:21;8.40;99.90
67163;DHT22;54092;53.088;8.850;2023-05-01T05:38:46;8.50;99.90
67163;DHT22;54092;53.088;8.850;2023-05-01T05:41:12;8.60;99.90
67163;DHT22;54092;53.088;8.850;2023-05-01T05:43:38;8.70;99.90
67163;DHT22;54092;53.088;8.850;2023-05-01T05:46:03;8.80;99.90
67163;DHT22;54092;53.088;8.850;2023-05-01T05:48:29;8.90;99.90
67163;DHT22;54092;53.088;8.850;2023-05-01T05:50:54;9.00;99.90
67163;DHT22;54092;53.088;8.850;2023-05-01T05:53:21;9.10;99.90
67163;DHT22;54092;53.088;8.850;2023-05-01T05:55:46;9.10;99.90
67163;DHT22;54092;53.088;8.850;2023-05-01T05:58:13;9.20;99.90
67163;DHT22;54092;53.088;8.850;2023-05-01T06:00:47;9.20;99.90
67163;DHT22;54092;53.088;8.850;2023-05-01T06:03:14;9.30;99.90
67163;DHT22;54092;53.088;8.850;2023-05-01T06:05:41;9.40;99.90
67163;DHT22;54092;53.088;8.850;2023-05-01T06:08:06;9.40;99.90
67163;DHT22;54092;53.088;8.850;2023-05-01T06:10:34;9.50;99.90
67163;DHT22;54092;53.088;8.850;2023-05-01T06:13:00;9.70;99.90
67163;DHT22;54092;53.088;8.850;2023-05-01T06:15:26;9.80;99.90
67163;DHT22;54092;53.088;8.850;2023-05-01T06:17:52;9.90;99.90
67163;DHT22;54092;53.088;8.850;2023-05-01T06:20:17;10.00;99.90
67163;DHT22;54092;53.088;8.850;2023-05-01T06:22:43;10.00;99.90
67163;DHT22;54092;53.088;8.850;2023-05-01T06:25:08;10.00;99.90
67163;DHT22;54092;53.088;8.850;2023-05-01T06:27:34;10.10;99.90
67163;DHT22;54092;53.088;8.850;2023-05-01T06:29:59;10.20;99.90
67163;DHT22;54092;53.088;8.850;2023-05-01T06:32:25;10.30;99.90
67163;DHT22;54092;53.088;8.850;2023-05-01T06:34:51;10.50;99.90
67163;DHT22;54092;53.088;8.850;2023-05-01T06:37:16;10.60;99.90
67163;DHT22;54092;53.088;8.850;2023-05-01T06:39:41;10.60;99.90
67163;DHT22;54092;53.088;8.850;2023-05-01T06:42:07;10.80;99.90
67163;DHT22;54092;53.088;8.850;2023-05-01T06:44:35;10.90;99.90
67163;DHT22;54092;53.088;8.850;2023-05-01T06:47:01;11.00;99.90
67163;DHT22;54092;53.088;8.850;2023-05-01T06:49:26;11.10;99.90
67163;DHT22;54092;53.088;8.850;2023-05-01T06:51:52;11.20;99.90
67163;DHT22;54092;53.088;8.850;2023-05-01T06:54:17;11.20;99.90
67163;DHT22;54092;53.088;8.850;2023-05-01T06:56:43;11.30;99.90
67163;DHT22;54092;53.088;8.850;2023-05-01T06:59:09;11.40;99.90
67163;DHT22;54092;53.088;8.850;2023-05-01T07:01:34;11.50;99.90
67163;DHT22;54092;53.088;8.850;2023-05-01T07:04:00;11.60;99.90
67163;DHT22;54092;53.088;8.850;2023-05-01T07:06:26;11.60;99.90
67163;DHT22;54092;53.088;8.850;2023-05-01T07:08:52;11.60;99.90
67163;DHT22;54092;53.088;8.850;2023-05-01T07:11:17;11.70;99.90
67163;DHT22;54092;53.088;8.850;2023-05-01T07:13:43;11.70;99.90
67163;DHT22;54092;53.088;8.850;2023-05-01T07:16:08;11.80;99.90
67163;DHT22;54092;53.088;8.850;2023-05-01T07:18:34;11.90;99.90
67163;DHT22;54092;53.088;8.850;2023-05-01T07:20:59;12.00;99.90
67163;DHT22;54092;53.088;8.850;2023-05-01T07:23:25;12.20;99.90
67163;DHT22;54092;53.088;8.850;2023-05-01T07:25:51;12.30;99.90
67163;DHT22;54092;53.088;8.850;2023-05-01T07:28:17;12.30;99.90
67163;DHT22;54092;53.088;8.850;2023-05-01T07:30:44;12.40;99.90
67163;DHT22;54092;53.088;8.850;2023-05-01T07:33:10;12.30;99.90
67163;DHT22;54092;53.088;8.850;2023-05-01T07:35:36;12.40;99.90
67163;DHT22;54092;53.088;8.850;2023-05-01T07:38:01;12.60;99.90
67163;DHT22;54092;53.088;8.850;2023-05-01T07:40:27;12.50;99.90
67163;DHT22;54092;53.088;8.850;2023-05-01T07:42:52;12.60;99.90
67163;DHT22;54092;53.088;8.850;2023-05-01T07:45:18;12.70;99.90
67163;DHT22;54092;53.088;8.850;2023-05-01T07:47:43;13.00;99.90
67163;DHT22;54092;53.088;8.850;2023-05-01T07:50:10;13.50;99.90
67163;DHT22;54092;53.088;8.850;2023-05-01T07:52:36;13.80;99.90
67163;DHT22;54092;53.088;8.850;2023-05-01T07:55:02;14.10;99.90
67163;DHT22;54092;53.088;8.850;2023-05-01T07:57:27;14.30;99.90
67163;DHT22;54092;53.088;8.850;2023-05-01T07:59:56;14.40;99.90
67163;DHT22;54092;53.088;8.850;2023-05-01T08:02:22;14.50;99.90
67163;DHT22;54092;53.088;8.850;2023-05-01T08:04:47;14.50;99.90
67163;DHT22;54092;53.088;8.850;2023-05-01T08:07:13;14.60;99.90
67163;DHT22;54092;53.088;8.850;2023-05-01T08:09:39;14.70;99.90
67163;DHT22;54092;53.088;8.850;2023-05-01T08:12:05;14.70;99.90
67163;DHT22;54092;53.088;8.850;2023-05-01T08:14:30;14.70;99.90
67163;DHT22;54092;53.088;8.850;2023-05-01T08:16:56;14.60;99.90
67163;DHT22;54092;53.088;8.850;2023-05-01T08:19:21;14.70;99.90
67163;DHT22;54092;53.088;8.850;2023-05-01T08:21:47;14.90;99.90
67163;DHT22;54092;53.088;8.850;2023-05-01T08:24:13;15.30;99.90
67163;DHT22;54092;53.088;8.850;2023-05-01T08:26:38;15.40;99.90
67163;DHT22;54092;53.088;8.850;2023-05-01T08:29:04;15.60;99.90
67163;DHT22;54092;53.088;8.850;2023-05-01T08:31:30;15.60;99.90
67163;DHT22;54092;53.088;8.850;2023-05-01T08:33:55;15.70;99.90
67163;DHT22;54092;53.088;8.850;2023-05-01T08:36:22;15.70;99.90
67163;DHT22;54092;53.088;8.850;2023-05-01T08:38:47;15.80;99.90
67163;DHT22;54092;53.088;8.850;2023-05-01T08:41:20;15.80;99.90
67163;DHT22;54092;53.088;8.850;2023-05-01T08:43:47;15.70;99.90
67163;DHT22;54092;53.088;8.850;2023-05-01T08:46:20;16.00;99.90
67163;DHT22;54092;53.088;8.850;2023-05-01T08:48:49;16.30;99.90
67163;DHT22;54092;53.088;8.850;2023-05-01T08:51:17;16.50;99.90
67163;DHT22;54092;53.088;8.850;2023-05-01T08:53:45;16.50;99.90
67163;DHT22;54092;53.088;8.850;2023-05-01T08:56:14;16.90;99.90
67163;DHT22;54092;53.088;8.850;2023-05-01T08:58:41;17.30;99.90
67163;DHT22;54092;53.088;8.850;2023-05-01T09:01:13;17.60;99.90
67163;DHT22;54092;53.088;8.850;2023-05-01T09:03:39;17.90;99.90
67163;DHT22;54092;53.088;8.850;2023-05-01T09:06:07;18.30;99.90
67163;DHT22;54092;53.088;8.850;2023-05-01T09:08:33;18.50;99.90
67163;DHT22;54092;53.088;8.850;2023-05-01T09:10:59;18.50;99.90
67163;DHT22;54092;53.088;8.850;2023-05-01T09:13:25;18.40;99.90
67163;DHT22;54092;53.088;8.850;2023-05-01T09:15:51;18.60;99.90
67163;DHT22;54092;53.088;8.850;2023-05-01T09:18:17;19.00;99.90
67163;DHT22;54092;53.088;8.850;2023-05-01T09:20:42;19.10;99.90
67163;DHT22;54092;53.088;8.850;2023-05-01T09:23:08;18.80;99.90
67163;DHT22;54092;53.088;8.850;2023-05-01T09:25:33;18.90;99.90
67163;DHT22;54092;53.088;8.850;2023-05-01T09:27:59;19.40;99.90
67163;DHT22;54092;53.088;8.850;2023-05-01T09:30:30;19.50;99.90
67163;DHT22;54092;53.088;8.850;2023-05-01T09:33:05;19.90;99.90
67163;DHT22;54092;53.088;8.850;2023-05-01T09:35:31;20.60;99.90
67163;DHT22;54092;53.088;8.850;2023-05-01T09:37:58;20.90;99.90
67163;DHT22;54092;53.088;8.850;2023-05-01T09:40:26;21.00;99.90
67163;DHT22;54092;53.088;8.850;2023-05-01T09:42:53;21.30;99.90
67163;DHT22;54092;53.088;8.850;2023-05-01T09:45:20;21.30;99.90
67163;DHT22;54092;53.088;8.850;2023-05-01T09:47:47;21.30;99.90
67163;DHT22;54092;53.088;8.850;2023-05-01T09:50:31;21.10;99.90
67163;DHT22;54092;53.088;8.850;2023-05-01T09:53:00;21.80;99.90
67163;DHT22;54092;53.088;8.850;2023-05-01T09:55:26;21.40;99.90
67163;DHT22;54092;53.088;8.850;2023-05-01T09:57:51;20.80;99.90
67163;DHT22;54092;53.088;8.850;2023-05-01T10:00:17;20.70;99.90
67163;DHT22;54092;53.088;8.850;2023-05-01T10:02:47;20.10;99.90
67163;DHT22;54092;53.088;8.850;2023-05-01T10:05:13;19.80;99.90
67163;DHT22;54092;53.088;8.850;2023-05-01T10:07:52;20.00;99.90
67163;DHT22;54092;53.088;8.850;2023-05-01T10:10:20;20.30;99.90
67163;DHT22;54092;53.088;8.850;2023-05-01T10:12:46;20.90;99.90
67163;DHT22;54092;53.088;8.850;2023-05-01T10:15:13;21.20;99.90
67163;DHT22;54092;53.088;8.850;2023-05-01T10:17:39;21.10;99.90
67163;DHT22;54092;53.088;8.850;2023-05-01T10:20:06;20.90;99.90
67163;DHT22;54092;53.088;8.850;2023-05-01T10:22:32;21.00;99.90
67163;DHT22;54092;53.088;8.850;2023-05-01T10:24:59;21.00;99.90
67163;DHT22;54092;53.088;8.850;2023-05-01T10:27:25;20.80;99.90
67163;DHT22;54092;53.088;8.850;2023-05-01T10:29:54;20.90;99.90
67163;DHT22;54092;53.088;8.850;2023-05-01T10:32:20;21.50;99.90
67163;DHT22;54092;53.088;8.850;2023-05-01T10:34:54;22.00;99.90
67163;DHT22;54092;53.088;8.850;2023-05-01T10:37:28;23.00;99.90
67163;DHT22;54092;53.088;8.850;2023-05-01T10:39:55;23.20;99.90
67163;DHT22;54092;53.088;8.850;2023-05-01T10:42:21;22.90;99.90
67163;DHT22;54092;53.088;8.850;2023-05-01T10:44:46;22.90;99.90
67163;DHT22;54092;53.088;8.850;2023-05-01T10:50:12;23.00;99.90
67163;DHT22;54092;53.088;8.850;2023-05-01T10:55:40;23.80;99.90
67163;DHT22;54092;53.088;8.850;2023-05-01T10:58:10;24.10;99.90
67163;DHT22;54092;53.088;8.850;2023-05-01T11:00:36;24.20;99.90
67163;DHT22;54092;53.088;8.850;2023-05-01T11:08:29;25.40;99.90
67163;DHT22;54092;53.088;8.850;2023-05-01T11:11:01;25.20;99.90
67163;DHT22;54092;53.088;8.850;2023-05-01T11:14:03;25.60;99.90
67163;DHT22;54092;53.088;8.850;2023-05-01T11:19:10;25.40;99.90
67163;DHT22;54092;53.088;8.850;2023-05-01T11:21:37;25.50;99.90
67163;DHT22;54092;53.088;8.850;2023-05-01T11:24:04;25.40;99.90
67163;DHT22;54092;53.088;8.850;2023-05-01T11:26:30;25.80;99.90
67163;DHT22;54092;53.088;8.850;2023-05-01T11:28:58;26.10;99.90
67163;DHT22;54092;53.088;8.850;2023-05-01T11:31:25;25.90;99.90
67163;DHT22;54092;53.088;8.850;2023-05-01T11:33:51;26.00;99.90
67163;DHT22;54092;53.088;8.850;2023-05-01T11:36:18;26.20;99.90
67163;DHT22;54092;53.088;8.850;2023-05-01T11:38:56;26.40;99.90
67163;DHT22;54092;53.088;8.850;2023-05-01T11:41:26;26.10;99.90
67163;DHT22;54092;53.088;8.850;2023-05-01T11:43:53;26.90;99.90
67163;DHT22;54092;53.088;8.850;2023-05-01T11:46:24;27.20;99.90
67163;DHT22;54092;53.088;8.850;2023-05-01T11:48:52;27.00;99.90
67163;DHT22;54092;53.088;8.850;2023-05-01T11:51:18;27.00;99.90
67163;DHT22;54092;53.088;8.850;2023-05-01T11:53:57;26.80;99.90
67163;DHT22;54092;53.088;8.850;2023-05-01T11:56:25;27.10;99.90
67163;DHT22;54092;53.088;8.850;2023-05-01T11:58:50;26.90;99.90
67163;DHT22;54092;53.088;8.850;2023-05-01T12:01:17;26.90;99.90
67163;DHT22;54092;53.088;8.850;2023-05-01T12:03:43;26.70;99.90
67163;DHT22;54092;53.088;8.850;2023-05-01T12:06:10;27.30;99.90
67163;DHT22;54092;53.088;8.850;2023-05-01T12:08:42;27.50;99.90
67163;DHT22;54092;53.088;8.850;2023-05-01T12:11:07;27.40;99.90
67163;DHT22;54092;53.088;8.850;2023-05-01T12:13:33;26.30;99.90
67163;DHT22;54092;53.088;8.850;2023-05-01T12:15:59;25.60;99.90
67163;DHT22;54092;53.088;8.850;2023-05-01T12:18:25;24.70;99.90
67163;DHT22;54092;53.088;8.850;2023-05-01T12:20:52;24.20;99.90
67163;DHT22;54092;53.088;8.850;2023-05-01T12:23:19;24.00;99.90
67163;DHT22;54092;53.088;8.850;2023-05-01T12:25:53;23.70;99.90
67163;DHT22;54092;53.088;8.850;2023-05-01T12:28:19;23.30;99.90
67163;DHT22;54092;53.088;8.850;2023-05-01T12:30:46;23.00;99.90
67163;DHT22;54092;53.088;8.850;2023-05-01T12:33:13;22.50;99.90
67163;DHT22;54092;53.088;8.850;2023-05-01T12:35:40;22.20;99.90
67163;DHT22;54092;53.088;8.850;2023-05-01T12:38:19;22.00;99.90
67163;DHT22;54092;53.088;8.850;2023-05-01T12:40:56;22.00;99.90
67163;DHT22;54092;53.088;8.850;2023-05-01T12:43:33;21.90;99.90
67163;DHT22;54092;53.088;8.850;2023-05-01T12:46:00;21.40;99.90
67163;DHT22;54092;53.088;8.850;2023-05-01T12:48:26;21.20;99.90
67163;DHT22;54092;53.088;8.850;2023-05-01T12:50:52;21.20;99.90
67163;DHT22;54092;53.088;8.850;2023-05-01T12:53:24;21.40;99.90
67163;DHT22;54092;53.088;8.850;2023-05-01T12:55:58;21.40;99.90
67163;DHT22;54092;53.088;8.850;2023-05-01T12:58:34;21.10;99.90
67163;DHT22;54092;53.088;8.850;2023-05-01T13:01:00;21.10;99.90
67163;DHT22;54092;53.088;8.850;2023-05-01T13:03:27;21.10;99.90
67163;DHT22;54092;53.088;8.850;2023-05-01T13:06:00;20.70;99.90
67163;DHT22;54092;53.088;8.850;2023-05-01T13:08:28;20.60;99.90
67163;DHT22;54092;53.088;8.850;2023-05-01T13:10:55;20.70;99.90
67163;DHT22;54092;53.088;8.850;2023-05-01T13:13:34;20.80;99.90
67163;DHT22;54092;53.088;8.850;2023-05-01T13:16:18;21.00;99.90
67163;DHT22;54092;53.088;8.850;2023-05-01T13:18:46;20.80;99.90
67163;DHT22;54092;53.088;8.850;2023-05-01T13:21:14;20.60;99.90
67163;DHT22;54092;53.088;8.850;2023-05-01T13:23:41;20.40;99.90
67163;DHT22;54092;53.088;8.850;2023-05-01T13:26:08;20.20;99.90
67163;DHT22;54092;53.088;8.850;2023-05-01T13:28:39;20.20;99.90
67163;DHT22;54092;53.088;8.850;2023-05-01T13:31:13;20.50;99.90
67163;DHT22;54092;53.088;8.850;2023-05-01T13:33:42;20.70;99.90
67163;DHT22;54092;53.088;8.850;2023-05-01T13:36:09;20.40;99.90
67163;DHT22;54092;53.088;8.850;2023-05-01T13:38:44;20.30;99.90
67163;DHT22;54092;53.088;8.850;2023-05-01T13:41:17;20.30;99.90
67163;DHT22;54092;53.088;8.850;2023-05-01T13:43:47;20.20;99.90
67163;DHT22;54092;53.088;8.850;2023-05-01T13:46:14;19.90;99.90
67163;DHT22;54092;53.088;8.850;2023-05-01T13:48:40;19.90;99.90
67163;DHT22;54092;53.088;8.850;2023-05-01T13:51:10;19.80;99.90
67163;DHT22;54092;53.088;8.850;2023-05-01T13:53:38;19.70;99.90
67163;DHT22;54092;53.088;8.850;2023-05-01T13:56:04;19.60;99.90
67163;DHT22;54092;53.088;8.850;2023-05-01T13:58:31;19.60;99.90
67163;DHT22;54092;53.088;8.850;2023-05-01T14:00:57;19.50;99.90
67163;DHT22;54092;53.088;8.850;2023-05-01T14:03:23;19.40;99.90
67163;DHT22;54092;53.088;8.850;2023-05-01T14:05:49;19.70;99.90
67163;DHT22;54092;53.088;8.850;2023-05-01T14:08:14;20.00;99.90
67163;DHT22;54092;53.088;8.850;2023-05-01T14:10:40;20.40;99.90
67163;DHT22;54092;53.088;8.850;2023-05-01T14:13:06;20.60;99.90
67163;DHT22;54092;53.088;8.850;2023-05-01T14:15:35;20.70;99.90
67163;DHT22;54092;53.088;8.850;2023-05-01T14:18:04;20.60;99.90
67163;DHT22;54092;53.088;8.850;2023-05-01T14:20:30;20.50;99.90
67163;DHT22;54092;53.088;8.850;2023-05-01T14:22:56;20.50;99.90
67163;DHT22;54092;53.088;8.850;2023-05-01T14:25:28;20.50;99.90
67163;DHT22;54092;53.088;8.850;2023-05-01T14:27:56;20.70;99.90
67163;DHT22;54092;53.088;8.850;2023-05-01T14:30:28;20.80;99.90
67163;DHT22;54092;53.088;8.850;2023-05-01T14:32:57;21.00;99.90
67163;DHT22;54092;53.088;8.850;2023-05-01T14:35:25;20.80;99.90
67163;DHT22;54092;53.088;8.850;2023-05-01T14:37:51;20.80;99.90
67163;DHT22;54092;53.088;8.850;2023-05-01T14:40:25;20.60;99.90
67163;DHT22;54092;53.088;8.850;2023-05-01T14:42:53;20.30;99.90
67163;DHT22;54092;53.088;8.850;2023-05-01T14:45:19;20.20;99.90
67163;DHT22;54092;53.088;8.850;2023-05-01T14:47:46;20.00;99.90
67163;DHT22;54092;53.088;8.850;2023-05-01T14:50:21;19.90;99.90
67163;DHT22;54092;53.088;8.850;2023-05-01T14:52:54;19.80;99.90
67163;DHT22;54092;53.088;8.850;2023-05-01T14:55:30;19.50;99.90
67163;DHT22;54092;53.088;8.850;2023-05-01T14:57:57;19.40;99.90
67163;DHT22;54092;53.088;8.850;2023-05-01T15:00:23;19.30;99.90
67163;DHT22;54092;53.088;8.850;2023-05-01T15:02:49;19.30;99.90
67163;DHT22;54092;53.088;8.850;2023-05-01T15:05:16;19.10;99.90
67163;DHT22;54092;53.088;8.850;2023-05-01T15:07:42;19.00;99.90
67163;DHT22;54092;53.088;8.850;2023-05-01T15:10:07;19.00;99.90
67163;DHT22;54092;53.088;8.850;2023-05-01T15:12:33;19.00;99.90
67163;DHT22;54092;53.088;8.850;2023-05-01T15:14:59;19.00;99.90
67163;DHT22;54092;53.088;8.850;2023-05-01T15:17:24;19.10;99.90
67163;DHT22;54092;53.088;8.850;2023-05-01T15:19:50;19.10;99.90
67163;DHT22;54092;53.088;8.850;2023-05-01T15:22:15;19.30;99.90
67163;DHT22;54092;53.088;8.850;2023-05-01T15:24:41;19.30;99.90
67163;DHT22;54092;53.088;8.850;2023-05-01T15:27:06;19.40;99.90
67163;DHT22;54092;53.088;8.850;2023-05-01T15:29:32;19.30;99.90
67163;DHT22;54092;53.088;8.850;2023-05-01T15:31:58;19.30;99.90
67163;DHT22;54092;53.088;8.850;2023-05-01T15:34:24;19.30;99.90
67163;DHT22;54092;53.088;8.850;2023-05-01T15:36:50;19.30;99.90
67163;DHT22;54092;53.088;8.850;2023-05-01T15:39:15;19.30;99.90
67163;DHT22;54092;53.088;8.850;2023-05-01T15:41:42;19.30;99.90
67163;DHT22;54092;53.088;8.850;2023-05-01T15:44:07;19.30;99.90
67163;DHT22;54092;53.088;8.850;2023-05-01T15:46:35;19.20;99.90
67163;DHT22;54092;53.088;8.850;2023-05-01T15:49:01;19.20;99.90
67163;DHT22;54092;53.088;8.850;2023-05-01T15:51:28;19.20;99.90
67163;DHT22;54092;53.088;8.850;2023-05-01T15:53:54;19.20;99.90
67163;DHT22;54092;53.088;8.850;2023-05-01T15:56:20;19.20;99.90
67163;DHT22;54092;53.088;8.850;2023-05-01T15:58:46;19.10;99.90
67163;DHT22;54092;53.088;8.850;2023-05-01T16:01:11;19.00;99.90
67163;DHT22;54092;53.088;8.850;2023-05-01T16:03:38;19.00;99.90
67163;DHT22;54092;53.088;8.850;2023-05-01T16:06:07;19.00;99.90